This is the latest recevied weather packets stored in our database for station/object HB9MIR-13. If no packets are shown the sender has not sent any weather packets the latest 10 day(s).
| Time | Temp. | Humidity | Pressure | Rain* | Wind** | Luminosity | Snow |
|---|---|---|---|---|---|---|---|
| 1777628148 | 16.67° C | 36% | 1024.3 hPa | 0 mm | - | 733 W/m² | - |
| 1777627412 | 15.56° C | 33% | 1024.3 hPa | 0 mm | - | 713 W/m² | - |
| 1777626712 | 15° C | 33% | 1024.3 hPa | 0 mm | - | 695 W/m² | - |
| 1777626024 | 14.44° C | 37% | 1024.4 hPa | 0 mm | - | 674 W/m² | - |
| 1777625338 | 13.89° C | 34% | 1024.4 hPa | 0 mm | - | 646 W/m² | - |
| 1777624649 | 13.89° C | 35% | 1024.4 hPa | 0 mm | - | 619 W/m² | - |
| 1777623912 | 13.89° C | 32% | 1024.4 hPa | 0 mm | - | 583 W/m² | - |
| 1777623211 | 13.33° C | 33% | 1024.5 hPa | 0 mm | - | 553 W/m² | - |
| 1777622523 | 12.22° C | 34% | 1024.6 hPa | 0 mm | - | 524 W/m² | - |
| 1777621836 | 12.22° C | 32% | 1024.4 hPa | 0 mm | - | 480 W/m² | - |
| 1777621148 | 11.67° C | 37% | 1024.4 hPa | 0 mm | - | 174 W/m² | - |
| 1777620460 | 11.11° C | 39% | 1024.4 hPa | 0 mm | - | 61 W/m² | - |
| 1777619772 | 10° C | 43% | 1024.4 hPa | 0 mm | - | 60 W/m² | - |
| 1777619097 | 9.44° C | 46% | 1024.5 hPa | 0 mm | - | 58 W/m² | - |
| 1777618396 | 8.89° C | 46% | 1024.5 hPa | 0 mm | - | 56 W/m² | - |
| 1777617709 | 8.33° C | 49% | 1024.5 hPa | 0 mm | - | 54 W/m² | - |
| 1777617021 | 6.67° C | 52% | 1024.5 hPa | 0 mm | - | 52 W/m² | - |
| 1777616334 | 6.11° C | 64% | 1024.5 hPa | 0 mm | - | 50 W/m² | - |
| 1777615647 | 5.56° C | 63% | 1024.5 hPa | 0 mm | - | 48 W/m² | - |
| 1777614959 | 6.11° C | 49% | 1024.5 hPa | 0 mm | - | 46 W/m² | - |
| 1777614284 | 5° C | 55% | 1024.4 hPa | 0 mm | - | 43 W/m² | - |
| 1777613583 | 4.44° C | 58% | 1024.4 hPa | 0 mm | - | 39 W/m² | - |
| 1777612896 | 6.11° C | 48% | 1024.3 hPa | 0 mm | - | 36 W/m² | - |
| 1777612208 | 6.11° C | 47% | 1024.1 hPa | 0 mm | - | 32 W/m² | - |
| 1777611520 | 6.11° C | 47% | 1024.1 hPa | 0 mm | - | 27 W/m² | - |
* Rain latest hour (hover to see other rain measurements)
** Current wind speed in m/s (hover to see current wind gust speed)